createdAt,value
2022-08-21T10:46:22.018Z,101459.81
2022-08-21T10:51:35.449Z,101457.78
2022-08-21T10:56:33.469Z,101449.81
2022-08-21T11:01:36.451Z,101454.38
2022-08-21T11:06:33.123Z,101454.56
2022-08-21T11:11:36.672Z,101458.63
2022-08-21T11:16:42.830Z,101451.66
2022-08-21T11:21:51.963Z,101465.00
2022-08-21T11:27:00.262Z,101456.69
2022-08-21T11:32:08.175Z,101455.19
2022-08-21T11:37:13.974Z,101462.13
2022-08-21T11:42:10.615Z,101463.84
2022-08-21T11:47:10.062Z,101467.22
2022-08-21T11:52:24.529Z,101463.94
2022-08-21T11:57:38.978Z,101462.94
2022-08-21T12:02:36.362Z,101463.94
2022-08-21T12:07:42.820Z,101454.47
2022-08-21T12:12:45.880Z,101450.75
2022-08-21T12:17:51.759Z,101447.38
2022-08-21T12:22:54.305Z,101444.78
2022-08-21T12:27:54.380Z,101450.03
2022-08-21T12:32:56.541Z,101451.56
2022-08-21T12:37:57.097Z,101454.91
2022-08-21T12:42:59.029Z,101445.34
2022-08-21T12:48:00.292Z,101450.44
2022-08-21T12:53:00.612Z,101438.84
2022-08-21T12:57:56.933Z,101446.41
2022-08-21T13:02:56.204Z,101442.06
2022-08-21T13:07:52.644Z,101440.63
2022-08-21T13:12:49.015Z,101437.47
2022-08-21T13:17:46.603Z,101437.13
2022-08-21T13:22:44.010Z,101436.28
2022-08-21T13:27:40.425Z,101425.38
2022-08-21T13:32:38.707Z,101419.03
2022-08-21T13:37:35.919Z,101416.13
2022-08-21T13:42:34.397Z,101425.47
2022-08-21T13:47:31.780Z,101418.94
2022-08-21T13:52:28.247Z,101424.97
2022-08-21T13:57:29.023Z,101415.38
2022-08-21T14:02:25.417Z,101421.38
2022-08-21T14:07:24.681Z,101423.97
2022-08-21T14:12:28.067Z,101423.78
2022-08-21T14:23:51.238Z,101425.38
2022-08-21T14:28:50.024Z,101419.72
2022-08-21T14:33:54.476Z,101418.44
2022-08-21T14:38:52.625Z,101422.44
2022-08-21T14:44:01.235Z,101421.78
2022-08-21T14:49:06.454Z,101432.81
2022-08-21T14:54:02.897Z,101426.53
2022-08-21T14:59:01.969Z,101424.66
2022-08-21T15:03:58.393Z,101426.38
2022-08-21T15:09:00.071Z,101424.84
2022-08-21T15:13:57.497Z,101426.22
2022-08-21T15:18:53.901Z,101432.50
2022-08-21T15:23:51.323Z,101415.53
2022-08-21T15:28:49.728Z,101427.56
2022-08-21T15:33:46.139Z,101420.28
2022-08-21T15:38:42.556Z,101428.91
2022-08-21T15:43:44.649Z,101418.88
2022-08-21T15:48:43.911Z,101423.81
2022-08-21T15:53:52.767Z,101426.38
2022-08-21T15:58:50.041Z,101431.81
2022-08-21T16:03:49.360Z,101428.59
2022-08-21T16:08:49.608Z,101425.56
2022-08-21T16:13:46.172Z,101424.06
2022-08-21T16:18:42.797Z,101415.06
2022-08-21T16:23:41.429Z,101417.94
2022-08-21T16:28:40.415Z,101420.88
2022-08-21T16:33:42.329Z,101415.44
2022-08-21T16:38:41.845Z,101412.72
2022-08-21T16:43:38.853Z,101419.16
2022-08-21T16:48:59.409Z,101418.50
2022-08-21T16:54:00.741Z,101423.63
2022-08-21T16:59:29.273Z,101413.25
2022-08-21T17:04:27.997Z,101413.78
2022-08-21T17:09:24.578Z,101416.84
2022-08-21T17:14:22.107Z,101410.09
2022-08-21T17:19:19.799Z,101426.75
2022-08-21T17:24:16.193Z,101429.97
2022-08-21T17:29:14.502Z,101433.22
2022-08-21T17:34:11.872Z,101425.59
2022-08-21T17:39:09.784Z,101428.00
2022-08-21T17:44:07.233Z,101435.97
2022-08-21T17:49:03.643Z,101442.97
2022-08-21T17:54:00.072Z,101452.00
2022-08-21T17:58:56.436Z,101453.88
2022-08-21T18:03:52.878Z,101456.56
2022-08-21T18:08:49.172Z,101465.56
2022-08-21T18:13:45.511Z,101469.16
2022-08-21T18:18:42.763Z,101471.19
2022-08-21T18:23:43.786Z,101479.31
2022-08-21T18:28:40.939Z,101492.00
2022-08-21T18:33:37.923Z,101487.59
2022-08-21T18:38:35.533Z,101498.25
2022-08-21T18:43:31.944Z,101496.41
2022-08-21T18:48:29.435Z,101500.78
2022-08-21T18:53:27.416Z,101504.31
2022-08-21T18:58:24.502Z,101507.66
2022-08-21T19:03:23.669Z,101514.59
2022-08-21T19:08:21.224Z,101519.13
2022-08-21T19:13:19.334Z,101521.47
2022-08-21T19:18:16.176Z,101523.00
2022-08-21T19:23:14.083Z,101528.03
2022-08-21T19:28:11.885Z,101533.25
2022-08-21T19:33:08.283Z,101530.03
2022-08-21T19:38:05.056Z,101532.38
2022-08-21T19:43:01.480Z,101538.28
2022-08-21T19:53:14.513Z,101542.13
2022-08-21T19:58:19.036Z,101547.00
2022-08-21T20:03:21.154Z,101557.25
2022-08-21T20:08:20.327Z,101552.16
2022-08-21T20:13:17.749Z,101556.19
2022-08-21T20:18:15.189Z,101560.41
2022-08-21T20:23:11.589Z,101556.13
2022-08-21T20:28:07.992Z,101562.56
2022-08-21T20:33:04.652Z,101563.56
2022-08-21T20:38:01.109Z,101559.16
